sensor_id;sensor_type;location;lat;lon;timestamp;P1;durP1;ratioP1;P2;durP2;ratioP2
67248;SDS011;63247;54.300;18.592;2022-10-01T00:01:54;43.75;;;20.00;;
67248;SDS011;63247;54.300;18.592;2022-10-01T00:04:20;49.20;;;20.77;;
67248;SDS011;63247;54.300;18.592;2022-10-01T00:06:46;47.25;;;20.20;;
67248;SDS011;63247;54.300;18.592;2022-10-01T00:09:12;45.97;;;20.37;;
67248;SDS011;63247;54.300;18.592;2022-10-01T00:11:37;48.35;;;20.50;;
67248;SDS011;63247;54.300;18.592;2022-10-01T00:14:03;48.27;;;20.77;;
67248;SDS011;63247;54.300;18.592;2022-10-01T00:16:29;49.30;;;20.92;;
67248;SDS011;63247;54.300;18.592;2022-10-01T00:18:55;44.85;;;19.90;;
67248;SDS011;63247;54.300;18.592;2022-10-01T00:21:22;45.42;;;20.60;;
67248;SDS011;63247;54.300;18.592;2022-10-01T00:23:57;48.58;;;21.38;;
67248;SDS011;63247;54.300;18.592;2022-10-01T00:26:29;48.65;;;21.45;;
67248;SDS011;63247;54.300;18.592;2022-10-01T00:28:57;47.73;;;21.17;;
67248;SDS011;63247;54.300;18.592;2022-10-01T00:31:24;51.63;;;20.45;;
67248;SDS011;63247;54.300;18.592;2022-10-01T00:33:51;47.55;;;21.35;;
67248;SDS011;63247;54.300;18.592;2022-10-01T00:36:17;45.92;;;21.05;;
67248;SDS011;63247;54.300;18.592;2022-10-01T00:38:43;47.60;;;21.03;;
67248;SDS011;63247;54.300;18.592;2022-10-01T00:41:11;48.20;;;21.48;;
67248;SDS011;63247;54.300;18.592;2022-10-01T00:43:40;47.50;;;21.30;;
67248;SDS011;63247;54.300;18.592;2022-10-01T00:49:10;46.92;;;20.73;;
67248;SDS011;63247;54.300;18.592;2022-10-01T00:51:43;50.47;;;21.73;;
67248;SDS011;63247;54.300;18.592;2022-10-01T00:54:13;45.40;;;21.77;;
67248;SDS011;63247;54.300;18.592;2022-10-01T00:56:45;46.75;;;21.67;;
67248;SDS011;63247;54.300;18.592;2022-10-01T00:59:11;47.13;;;21.00;;
67248;SDS011;63247;54.300;18.592;2022-10-01T01:01:40;49.10;;;21.50;;
67248;SDS011;63247;54.300;18.592;2022-10-01T01:04:06;51.25;;;22.73;;
67248;SDS011;63247;54.300;18.592;2022-10-01T01:06:43;49.97;;;21.83;;
67248;SDS011;63247;54.300;18.592;2022-10-01T01:09:15;53.33;;;21.23;;
67248;SDS011;63247;54.300;18.592;2022-10-01T01:14:21;48.30;;;21.38;;
67248;SDS011;63247;54.300;18.592;2022-10-01T01:16:57;54.30;;;22.63;;
67248;SDS011;63247;54.300;18.592;2022-10-01T01:22:13;52.25;;;22.05;;
67248;SDS011;63247;54.300;18.592;2022-10-01T01:27:39;52.20;;;23.73;;
67248;SDS011;63247;54.300;18.592;2022-10-01T01:30:11;57.10;;;23.77;;
67248;SDS011;63247;54.300;18.592;2022-10-01T01:35:06;54.35;;;24.40;;
67248;SDS011;63247;54.300;18.592;2022-10-01T01:37:36;59.58;;;24.42;;
67248;SDS011;63247;54.300;18.592;2022-10-01T01:40:07;55.97;;;24.20;;
67248;SDS011;63247;54.300;18.592;2022-10-01T01:42:38;60.70;;;25.27;;
67248;SDS011;63247;54.300;18.592;2022-10-01T01:45:08;54.87;;;23.20;;
67248;SDS011;63247;54.300;18.592;2022-10-01T01:47:39;55.00;;;22.52;;
67248;SDS011;63247;54.300;18.592;2022-10-01T01:50:07;55.47;;;23.67;;
67248;SDS011;63247;54.300;18.592;2022-10-01T01:52:34;61.67;;;24.90;;
67248;SDS011;63247;54.300;18.592;2022-10-01T01:55:00;61.20;;;24.50;;
67248;SDS011;63247;54.300;18.592;2022-10-01T01:57:31;60.07;;;26.13;;
67248;SDS011;63247;54.300;18.592;2022-10-01T01:59:57;65.13;;;25.60;;
67248;SDS011;63247;54.300;18.592;2022-10-01T02:02:27;59.30;;;24.50;;
67248;SDS011;63247;54.300;18.592;2022-10-01T02:04:59;56.05;;;24.15;;
67248;SDS011;63247;54.300;18.592;2022-10-01T02:08:13;62.53;;;24.60;;
67248;SDS011;63247;54.300;18.592;2022-10-01T02:18:13;73.35;;;27.73;;
67248;SDS011;63247;54.300;18.592;2022-10-01T02:20:45;69.07;;;26.02;;
67248;SDS011;63247;54.300;18.592;2022-10-01T02:23:16;68.85;;;27.08;;
67248;SDS011;63247;54.300;18.592;2022-10-01T02:25:57;73.30;;;26.80;;
67248;SDS011;63247;54.300;18.592;2022-10-01T02:28:26;72.97;;;28.45;;
67248;SDS011;63247;54.300;18.592;2022-10-01T02:30:55;69.97;;;27.65;;
67248;SDS011;63247;54.300;18.592;2022-10-01T02:33:24;70.75;;;27.33;;
67248;SDS011;63247;54.300;18.592;2022-10-01T02:35:55;72.75;;;28.75;;
67248;SDS011;63247;54.300;18.592;2022-10-01T02:38:22;65.93;;;27.13;;
67248;SDS011;63247;54.300;18.592;2022-10-01T02:40:50;72.40;;;28.17;;
67248;SDS011;63247;54.300;18.592;2022-10-01T02:43:19;70.05;;;28.90;;
67248;SDS011;63247;54.300;18.592;2022-10-01T02:45:50;71.75;;;27.90;;
67248;SDS011;63247;54.300;18.592;2022-10-01T02:48:21;69.70;;;27.77;;
67248;SDS011;63247;54.300;18.592;2022-10-01T02:50:48;69.93;;;27.73;;
67248;SDS011;63247;54.300;18.592;2022-10-01T02:53:36;71.60;;;27.70;;
67248;SDS011;63247;54.300;18.592;2022-10-01T02:56:07;72.75;;;27.73;;
67248;SDS011;63247;54.300;18.592;2022-10-01T02:58:35;72.25;;;28.70;;
67248;SDS011;63247;54.300;18.592;2022-10-01T03:01:00;73.07;;;29.33;;
67248;SDS011;63247;54.300;18.592;2022-10-01T03:03:26;80.03;;;30.45;;
67248;SDS011;63247;54.300;18.592;2022-10-01T03:05:51;79.57;;;29.88;;
67248;SDS011;63247;54.300;18.592;2022-10-01T03:08:17;79.50;;;30.80;;
67248;SDS011;63247;54.300;18.592;2022-10-01T03:10:43;83.70;;;31.05;;
67248;SDS011;63247;54.300;18.592;2022-10-01T03:13:09;76.55;;;29.60;;
67248;SDS011;63247;54.300;18.592;2022-10-01T03:15:35;76.30;;;28.97;;
67248;SDS011;63247;54.300;18.592;2022-10-01T03:18:00;73.33;;;28.97;;
67248;SDS011;63247;54.300;18.592;2022-10-01T03:20:26;73.60;;;27.92;;
67248;SDS011;63247;54.300;18.592;2022-10-01T03:22:51;74.03;;;28.00;;
67248;SDS011;63247;54.300;18.592;2022-10-01T03:25:17;73.85;;;28.90;;
67248;SDS011;63247;54.300;18.592;2022-10-01T03:27:43;71.97;;;28.17;;
67248;SDS011;63247;54.300;18.592;2022-10-01T03:30:10;72.15;;;27.48;;
67248;SDS011;63247;54.300;18.592;2022-10-01T03:32:36;65.85;;;26.98;;
67248;SDS011;63247;54.300;18.592;2022-10-01T03:35:02;65.97;;;26.50;;
67248;SDS011;63247;54.300;18.592;2022-10-01T03:37:28;68.85;;;26.90;;
67248;SDS011;63247;54.300;18.592;2022-10-01T03:39:53;68.97;;;27.07;;
67248;SDS011;63247;54.300;18.592;2022-10-01T03:42:18;66.97;;;26.80;;
67248;SDS011;63247;54.300;18.592;2022-10-01T03:44:44;66.95;;;27.25;;
67248;SDS011;63247;54.300;18.592;2022-10-01T03:47:09;66.23;;;26.90;;
67248;SDS011;63247;54.300;18.592;2022-10-01T03:49:35;70.77;;;26.70;;
67248;SDS011;63247;54.300;18.592;2022-10-01T03:52:02;72.68;;;28.63;;
67248;SDS011;63247;54.300;18.592;2022-10-01T03:54:28;73.13;;;28.63;;
67248;SDS011;63247;54.300;18.592;2022-10-01T03:56:55;70.03;;;27.47;;
67248;SDS011;63247;54.300;18.592;2022-10-01T03:59:21;68.63;;;26.80;;
67248;SDS011;63247;54.300;18.592;2022-10-01T04:01:47;68.50;;;28.20;;
67248;SDS011;63247;54.300;18.592;2022-10-01T04:04:12;65.40;;;26.87;;
67248;SDS011;63247;54.300;18.592;2022-10-01T04:06:38;72.60;;;28.30;;
67248;SDS011;63247;54.300;18.592;2022-10-01T04:09:04;73.53;;;28.47;;
67248;SDS011;63247;54.300;18.592;2022-10-01T04:11:30;75.97;;;29.08;;
67248;SDS011;63247;54.300;18.592;2022-10-01T04:13:55;80.97;;;29.17;;
67248;SDS011;63247;54.300;18.592;2022-10-01T04:16:24;74.53;;;29.45;;
67248;SDS011;63247;54.300;18.592;2022-10-01T04:18:49;78.50;;;29.00;;
67248;SDS011;63247;54.300;18.592;2022-10-01T04:21:15;69.57;;;27.48;;
67248;SDS011;63247;54.300;18.592;2022-10-01T04:23:41;78.33;;;29.17;;
67248;SDS011;63247;54.300;18.592;2022-10-01T04:26:06;74.88;;;28.20;;
67248;SDS011;63247;54.300;18.592;2022-10-01T04:28:32;88.60;;;31.23;;
67248;SDS011;63247;54.300;18.592;2022-10-01T04:30:59;79.35;;;30.33;;
67248;SDS011;63247;54.300;18.592;2022-10-01T04:33:43;84.40;;;30.98;;
67248;SDS011;63247;54.300;18.592;2022-10-01T04:36:09;85.80;;;31.80;;
67248;SDS011;63247;54.300;18.592;2022-10-01T04:38:35;81.80;;;30.13;;
67248;SDS011;63247;54.300;18.592;2022-10-01T04:41:01;81.20;;;30.80;;
67248;SDS011;63247;54.300;18.592;2022-10-01T04:43:26;82.57;;;31.38;;
67248;SDS011;63247;54.300;18.592;2022-10-01T04:45:52;76.53;;;29.17;;
67248;SDS011;63247;54.300;18.592;2022-10-01T04:48:17;81.47;;;29.97;;
67248;SDS011;63247;54.300;18.592;2022-10-01T04:50:43;79.35;;;28.92;;
67248;SDS011;63247;54.300;18.592;2022-10-01T04:53:08;80.03;;;29.97;;
67248;SDS011;63247;54.300;18.592;2022-10-01T04:55:34;83.93;;;30.27;;
67248;SDS011;63247;54.300;18.592;2022-10-01T04:58:00;78.13;;;29.80;;
67248;SDS011;63247;54.300;18.592;2022-10-01T05:00:25;81.77;;;29.47;;
67248;SDS011;63247;54.300;18.592;2022-10-01T05:02:51;80.93;;;29.47;;
67248;SDS011;63247;54.300;18.592;2022-10-01T05:05:18;82.47;;;30.05;;
67248;SDS011;63247;54.300;18.592;2022-10-01T05:07:45;83.70;;;30.20;;
67248;SDS011;63247;54.300;18.592;2022-10-01T05:10:11;88.17;;;31.80;;
67248;SDS011;63247;54.300;18.592;2022-10-01T05:12:38;87.60;;;32.42;;
67248;SDS011;63247;54.300;18.592;2022-10-01T05:15:05;87.20;;;32.03;;
67248;SDS011;63247;54.300;18.592;2022-10-01T05:17:31;83.55;;;32.95;;
67248;SDS011;63247;54.300;18.592;2022-10-01T05:19:58;83.97;;;31.67;;
67248;SDS011;63247;54.300;18.592;2022-10-01T05:22:24;79.25;;;30.65;;
67248;SDS011;63247;54.300;18.592;2022-10-01T05:24:50;75.03;;;31.00;;
67248;SDS011;63247;54.300;18.592;2022-10-01T05:27:16;64.35;;;27.95;;
67248;SDS011;63247;54.300;18.592;2022-10-01T05:29:42;63.63;;;27.65;;
67248;SDS011;63247;54.300;18.592;2022-10-01T05:32:08;55.10;;;24.45;;
67248;SDS011;63247;54.300;18.592;2022-10-01T05:34:36;48.63;;;22.67;;
67248;SDS011;63247;54.300;18.592;2022-10-01T05:37:02;47.42;;;22.15;;
67248;SDS011;63247;54.300;18.592;2022-10-01T05:39:28;42.95;;;20.50;;
67248;SDS011;63247;54.300;18.592;2022-10-01T05:41:54;47.13;;;21.50;;
67248;SDS011;63247;54.300;18.592;2022-10-01T05:44:20;41.78;;;20.30;;
67248;SDS011;63247;54.300;18.592;2022-10-01T05:46:46;40.40;;;19.50;;
67248;SDS011;63247;54.300;18.592;2022-10-01T05:49:12;41.63;;;19.75;;
67248;SDS011;63247;54.300;18.592;2022-10-01T05:51:37;41.23;;;19.37;;
67248;SDS011;63247;54.300;18.592;2022-10-01T05:54:03;42.50;;;19.88;;
67248;SDS011;63247;54.300;18.592;2022-10-01T05:56:29;43.23;;;20.27;;
67248;SDS011;63247;54.300;18.592;2022-10-01T05:58:54;42.58;;;20.67;;
67248;SDS011;63247;54.300;18.592;2022-10-01T06:01:20;42.37;;;20.27;;
67248;SDS011;63247;54.300;18.592;2022-10-01T06:03:49;43.73;;;19.00;;
67248;SDS011;63247;54.300;18.592;2022-10-01T06:06:18;36.17;;;17.80;;
67248;SDS011;63247;54.300;18.592;2022-10-01T06:08:47;38.30;;;18.95;;
67248;SDS011;63247;54.300;18.592;2022-10-01T06:11:13;35.47;;;18.50;;
67248;SDS011;63247;54.300;18.592;2022-10-01T06:13:39;38.33;;;17.40;;
67248;SDS011;63247;54.300;18.592;2022-10-01T06:16:09;33.50;;;17.42;;
67248;SDS011;63247;54.300;18.592;2022-10-01T06:18:35;35.65;;;16.90;;
67248;SDS011;63247;54.300;18.592;2022-10-01T06:21:00;31.63;;;16.53;;
67248;SDS011;63247;54.300;18.592;2022-10-01T06:23:26;32.60;;;16.83;;
67248;SDS011;63247;54.300;18.592;2022-10-01T06:25:52;29.23;;;15.85;;
67248;SDS011;63247;54.300;18.592;2022-10-01T06:28:18;35.30;;;18.33;;
67248;SDS011;63247;54.300;18.592;2022-10-01T06:30:44;29.47;;;15.83;;
67248;SDS011;63247;54.300;18.592;2022-10-01T06:33:11;31.98;;;17.10;;
67248;SDS011;63247;54.300;18.592;2022-10-01T06:35:39;30.90;;;16.65;;
67248;SDS011;63247;54.300;18.592;2022-10-01T06:38:07;30.65;;;16.92;;
67248;SDS011;63247;54.300;18.592;2022-10-01T06:40:33;31.50;;;16.23;;
67248;SDS011;63247;54.300;18.592;2022-10-01T06:42:59;35.00;;;17.03;;
67248;SDS011;63247;54.300;18.592;2022-10-01T06:45:25;33.97;;;18.80;;
67248;SDS011;63247;54.300;18.592;2022-10-01T06:47:55;33.15;;;17.50;;
67248;SDS011;63247;54.300;18.592;2022-10-01T06:50:22;31.15;;;18.00;;
67248;SDS011;63247;54.300;18.592;2022-10-01T06:52:48;28.42;;;16.38;;
67248;SDS011;63247;54.300;18.592;2022-10-01T06:55:15;32.58;;;16.58;;
67248;SDS011;63247;54.300;18.592;2022-10-01T06:57:45;27.95;;;15.48;;
67248;SDS011;63247;54.300;18.592;2022-10-01T07:00:11;29.88;;;16.83;;
67248;SDS011;63247;54.300;18.592;2022-10-01T07:02:38;26.95;;;16.58;;
67248;SDS011;63247;54.300;18.592;2022-10-01T07:05:03;29.42;;;16.55;;
67248;SDS011;63247;54.300;18.592;2022-10-01T07:07:30;27.35;;;15.82;;
67248;SDS011;63247;54.300;18.592;2022-10-01T07:09:57;31.35;;;16.17;;
67248;SDS011;63247;54.300;18.592;2022-10-01T07:12:23;35.85;;;16.60;;
67248;SDS011;63247;54.300;18.592;2022-10-01T07:14:49;27.95;;;16.83;;
67248;SDS011;63247;54.300;18.592;2022-10-01T07:17:14;25.27;;;14.97;;
67248;SDS011;63247;54.300;18.592;2022-10-01T07:19:40;31.83;;;15.07;;
67248;SDS011;63247;54.300;18.592;2022-10-01T07:22:06;25.43;;;15.50;;
67248;SDS011;63247;54.300;18.592;2022-10-01T07:24:32;28.77;;;15.90;;
67248;SDS011;63247;54.300;18.592;2022-10-01T07:26:58;29.02;;;15.93;;
67248;SDS011;63247;54.300;18.592;2022-10-01T07:29:23;25.53;;;16.53;;
67248;SDS011;63247;54.300;18.592;2022-10-01T07:31:49;27.50;;;15.33;;
67248;SDS011;63247;54.300;18.592;2022-10-01T07:34:20;28.85;;;16.13;;
67248;SDS011;63247;54.300;18.592;2022-10-01T07:36:48;25.98;;;15.10;;
67248;SDS011;63247;54.300;18.592;2022-10-01T07:39:14;26.17;;;15.35;;
67248;SDS011;63247;54.300;18.592;2022-10-01T07:41:40;25.57;;;15.53;;
67248;SDS011;63247;54.300;18.592;2022-10-01T07:44:07;25.60;;;15.43;;
67248;SDS011;63247;54.300;18.592;2022-10-01T07:46:32;24.63;;;14.02;;
67248;SDS011;63247;54.300;18.592;2022-10-01T07:48:58;26.57;;;14.70;;
67248;SDS011;63247;54.300;18.592;2022-10-01T07:51:24;24.93;;;14.33;;
67248;SDS011;63247;54.300;18.592;2022-10-01T07:53:50;23.15;;;13.60;;
67248;SDS011;63247;54.300;18.592;2022-10-01T07:56:16;24.83;;;13.25;;
67248;SDS011;63247;54.300;18.592;2022-10-01T07:58:42;21.03;;;12.70;;
67248;SDS011;63247;54.300;18.592;2022-10-01T08:01:07;19.88;;;13.00;;
67248;SDS011;63247;54.300;18.592;2022-10-01T08:03:33;21.10;;;12.27;;
67248;SDS011;63247;54.300;18.592;2022-10-01T08:05:59;23.27;;;12.98;;
67248;SDS011;63247;54.300;18.592;2022-10-01T08:08:27;22.02;;;12.43;;
67248;SDS011;63247;54.300;18.592;2022-10-01T08:10:55;21.95;;;11.98;;
67248;SDS011;63247;54.300;18.592;2022-10-01T08:13:20;20.87;;;12.03;;
67248;SDS011;63247;54.300;18.592;2022-10-01T08:15:49;21.65;;;12.63;;
67248;SDS011;63247;54.300;18.592;2022-10-01T08:18:18;22.95;;;13.30;;
67248;SDS011;63247;54.300;18.592;2022-10-01T08:20:47;20.38;;;11.80;;
67248;SDS011;63247;54.300;18.592;2022-10-01T08:23:13;22.20;;;13.73;;
67248;SDS011;63247;54.300;18.592;2022-10-01T08:25:40;22.73;;;13.30;;
67248;SDS011;63247;54.300;18.592;2022-10-01T08:28:07;22.70;;;15.07;;
67248;SDS011;63247;54.300;18.592;2022-10-01T08:30:38;21.23;;;13.30;;
67248;SDS011;63247;54.300;18.592;2022-10-01T08:33:05;22.08;;;13.05;;
67248;SDS011;63247;54.300;18.592;2022-10-01T08:35:30;20.17;;;12.05;;
67248;SDS011;63247;54.300;18.592;2022-10-01T08:38:00;19.13;;;11.87;;
67248;SDS011;63247;54.300;18.592;2022-10-01T08:40:27;17.15;;;11.00;;
67248;SDS011;63247;54.300;18.592;2022-10-01T08:42:58;18.88;;;11.50;;
67248;SDS011;63247;54.300;18.592;2022-10-01T08:45:46;20.23;;;12.03;;
67248;SDS011;63247;54.300;18.592;2022-10-01T08:51:28;23.40;;;14.70;;
67248;SDS011;63247;54.300;18.592;2022-10-01T08:54:32;23.30;;;13.45;;
67248;SDS011;63247;54.300;18.592;2022-10-01T08:57:01;22.75;;;11.95;;
67248;SDS011;63247;54.300;18.592;2022-10-01T08:59:39;22.20;;;12.53;;
67248;SDS011;63247;54.300;18.592;2022-10-01T09:02:21;24.48;;;14.25;;
67248;SDS011;63247;54.300;18.592;2022-10-01T09:04:49;22.30;;;12.70;;
67248;SDS011;63247;54.300;18.592;2022-10-01T09:16:01;18.02;;;11.13;;
67248;SDS011;63247;54.300;18.592;2022-10-01T09:21:21;18.88;;;10.77;;
67248;SDS011;63247;54.300;18.592;2022-10-01T09:24:02;17.15;;;9.80;;
67248;SDS011;63247;54.300;18.592;2022-10-01T09:26:29;18.87;;;11.10;;
67248;SDS011;63247;54.300;18.592;2022-10-01T09:28:56;18.23;;;10.40;;
67248;SDS011;63247;54.300;18.592;2022-10-01T09:31:33;20.85;;;10.20;;
67248;SDS011;63247;54.300;18.592;2022-10-01T09:34:11;18.23;;;10.32;;
67248;SDS011;63247;54.300;18.592;2022-10-01T09:39:24;18.67;;;11.80;;
67248;SDS011;63247;54.300;18.592;2022-10-01T09:41:59;19.27;;;11.05;;
67248;SDS011;63247;54.300;18.592;2022-10-01T09:44:26;19.02;;;10.43;;
67248;SDS011;63247;54.300;18.592;2022-10-01T09:46:53;19.42;;;12.20;;
67248;SDS011;63247;54.300;18.592;2022-10-01T09:49:27;20.17;;;9.98;;
67248;SDS011;63247;54.300;18.592;2022-10-01T09:51:59;17.17;;;10.23;;
67248;SDS011;63247;54.300;18.592;2022-10-01T09:57:10;19.67;;;11.15;;
67248;SDS011;63247;54.300;18.592;2022-10-01T10:02:24;17.10;;;9.50;;
67248;SDS011;63247;54.300;18.592;2022-10-01T10:04:59;15.50;;;9.48;;
67248;SDS011;63247;54.300;18.592;2022-10-01T10:10:35;17.45;;;9.75;;
67248;SDS011;63247;54.300;18.592;2022-10-01T10:15:35;18.60;;;10.95;;
67248;SDS011;63247;54.300;18.592;2022-10-01T10:18:06;19.98;;;10.38;;
67248;SDS011;63247;54.300;18.592;2022-10-01T10:20:43;19.48;;;10.63;;
67248;SDS011;63247;54.300;18.592;2022-10-01T10:23:16;19.33;;;10.23;;
67248;SDS011;63247;54.300;18.592;2022-10-01T10:25:54;17.95;;;9.40;;
67248;SDS011;63247;54.300;18.592;2022-10-01T10:28:20;17.55;;;9.57;;
67248;SDS011;63247;54.300;18.592;2022-10-01T10:30:54;18.98;;;10.43;;
67248;SDS011;63247;54.300;18.592;2022-10-01T10:33:21;18.60;;;10.15;;
67248;SDS011;63247;54.300;18.592;2022-10-01T10:35:58;21.95;;;11.27;;
67248;SDS011;63247;54.300;18.592;2022-10-01T10:38:28;19.35;;;9.57;;
67248;SDS011;63247;54.300;18.592;2022-10-01T10:40:56;18.80;;;8.95;;
67248;SDS011;63247;54.300;18.592;2022-10-01T10:43:24;18.48;;;9.80;;
67248;SDS011;63247;54.300;18.592;2022-10-01T10:45:54;17.10;;;9.90;;
67248;SDS011;63247;54.300;18.592;2022-10-01T10:48:22;19.75;;;10.75;;
67248;SDS011;63247;54.300;18.592;2022-10-01T10:51:02;18.35;;;9.85;;
67248;SDS011;63247;54.300;18.592;2022-10-01T10:53:38;19.15;;;9.70;;
67248;SDS011;63247;54.300;18.592;2022-10-01T10:56:20;20.75;;;10.20;;
67248;SDS011;63247;54.300;18.592;2022-10-01T10:58:48;18.92;;;9.52;;
67248;SDS011;63247;54.300;18.592;2022-10-01T11:01:16;19.02;;;10.32;;
67248;SDS011;63247;54.300;18.592;2022-10-01T11:03:49;19.70;;;10.32;;
67248;SDS011;63247;54.300;18.592;2022-10-01T11:06:19;17.80;;;10.35;;
67248;SDS011;63247;54.300;18.592;2022-10-01T11:08:45;19.60;;;10.30;;
67248;SDS011;63247;54.300;18.592;2022-10-01T11:14:35;17.73;;;10.30;;
67248;SDS011;63247;54.300;18.592;2022-10-01T11:26:33;18.13;;;9.02;;
67248;SDS011;63247;54.300;18.592;2022-10-01T11:31:55;17.03;;;9.40;;
67248;SDS011;63247;54.300;18.592;2022-10-01T11:37:40;16.45;;;8.68;;
67248;SDS011;63247;54.300;18.592;2022-10-01T11:43:20;16.05;;;9.00;;
67248;SDS011;63247;54.300;18.592;2022-10-01T11:45:51;16.63;;;8.20;;
67248;SDS011;63247;54.300;18.592;2022-10-01T11:50:56;16.63;;;8.13;;
67248;SDS011;63247;54.300;18.592;2022-10-01T11:53:31;16.60;;;9.15;;
67248;SDS011;63247;54.300;18.592;2022-10-01T11:56:03;14.13;;;8.90;;
67248;SDS011;63247;54.300;18.592;2022-10-01T12:01:45;16.55;;;8.50;;
67248;SDS011;63247;54.300;18.592;2022-10-01T12:12:26;19.60;;;8.20;;
67248;SDS011;63247;54.300;18.592;2022-10-01T12:15:03;14.85;;;8.63;;
67248;SDS011;63247;54.300;18.592;2022-10-01T12:17:40;12.73;;;6.13;;
67248;SDS011;63247;54.300;18.592;2022-10-01T12:20:52;16.73;;;7.50;;
67248;SDS011;63247;54.300;18.592;2022-10-01T12:23:03;11.82;;;7.45;;
67248;SDS011;63247;54.300;18.592;2022-10-01T12:25:37;13.17;;;6.63;;
67248;SDS011;63247;54.300;18.592;2022-10-01T12:28:17;12.82;;;6.30;;
67248;SDS011;63247;54.300;18.592;2022-10-01T12:30:53;13.07;;;6.68;;
67248;SDS011;63247;54.300;18.592;2022-10-01T12:36:01;12.07;;;6.68;;
67248;SDS011;63247;54.300;18.592;2022-10-01T12:39:02;12.03;;;6.40;;
67248;SDS011;63247;54.300;18.592;2022-10-01T12:50:51;14.35;;;7.60;;
67248;SDS011;63247;54.300;18.592;2022-10-01T12:53:45;11.47;;;5.43;;
67248;SDS011;63247;54.300;18.592;2022-10-01T12:59:06;16.75;;;7.32;;
67248;SDS011;63247;54.300;18.592;2022-10-01T13:10:23;10.63;;;5.47;;
67248;SDS011;63247;54.300;18.592;2022-10-01T13:15:37;10.90;;;6.03;;
67248;SDS011;63247;54.300;18.592;2022-10-01T13:18:08;15.10;;;7.10;;
67248;SDS011;63247;54.300;18.592;2022-10-01T13:20:36;14.65;;;8.30;;
67248;SDS011;63247;54.300;18.592;2022-10-01T13:23:26;15.27;;;7.45;;
67248;SDS011;63247;54.300;18.592;2022-10-01T13:26:05;15.43;;;8.05;;
67248;SDS011;63247;54.300;18.592;2022-10-01T13:28:43;15.00;;;7.10;;
67248;SDS011;63247;54.300;18.592;2022-10-01T13:31:35;15.17;;;8.33;;
67248;SDS011;63247;54.300;18.592;2022-10-01T13:34:20;17.33;;;8.35;;
67248;SDS011;63247;54.300;18.592;2022-10-01T13:38:12;24.88;;;10.80;;
67248;SDS011;63247;54.300;18.592;2022-10-01T13:40:01;13.95;;;7.80;;
67248;SDS011;63247;54.300;18.592;2022-10-01T13:45:24;15.87;;;7.90;;
67248;SDS011;63247;54.300;18.592;2022-10-01T13:53:44;16.42;;;7.47;;
67248;SDS011;63247;54.300;18.592;2022-10-01T13:56:31;14.32;;;8.13;;
67248;SDS011;63247;54.300;18.592;2022-10-01T13:59:00;17.40;;;8.67;;
67248;SDS011;63247;54.300;18.592;2022-10-01T14:01:28;15.25;;;8.20;;
67248;SDS011;63247;54.300;18.592;2022-10-01T14:07:16;19.27;;;9.10;;
67248;SDS011;63247;54.300;18.592;2022-10-01T14:09:28;16.38;;;8.10;;
67248;SDS011;63247;54.300;18.592;2022-10-01T14:12:02;16.87;;;8.40;;
67248;SDS011;63247;54.300;18.592;2022-10-01T14:18:20;16.75;;;8.25;;
67248;SDS011;63247;54.300;18.592;2022-10-01T14:23:42;17.00;;;8.48;;
67248;SDS011;63247;54.300;18.592;2022-10-01T14:34:13;25.05;;;9.35;;
67248;SDS011;63247;54.300;18.592;2022-10-01T14:36:51;20.45;;;10.20;;
67248;SDS011;63247;54.300;18.592;2022-10-01T14:41:46;28.80;;;11.15;;
67248;SDS011;63247;54.300;18.592;2022-10-01T14:44:18;26.75;;;11.13;;
67248;SDS011;63247;54.300;18.592;2022-10-01T14:46:56;21.20;;;10.27;;
67248;SDS011;63247;54.300;18.592;2022-10-01T14:49:27;23.17;;;11.00;;
67248;SDS011;63247;54.300;18.592;2022-10-01T14:54:23;24.13;;;11.68;;
67248;SDS011;63247;54.300;18.592;2022-10-01T14:56:49;37.97;;;14.80;;
67248;SDS011;63247;54.300;18.592;2022-10-01T14:59:20;24.85;;;12.18;;
67248;SDS011;63247;54.300;18.592;2022-10-01T15:01:54;30.73;;;14.15;;
67248;SDS011;63247;54.300;18.592;2022-10-01T15:04:22;24.43;;;10.63;;
67248;SDS011;63247;54.300;18.592;2022-10-01T15:06:47;20.17;;;10.45;;
67248;SDS011;63247;54.300;18.592;2022-10-01T15:09:14;21.77;;;10.87;;
67248;SDS011;63247;54.300;18.592;2022-10-01T15:11:43;21.20;;;10.60;;
67248;SDS011;63247;54.300;18.592;2022-10-01T15:14:13;18.65;;;10.07;;
67248;SDS011;63247;54.300;18.592;2022-10-01T15:16:44;19.80;;;8.77;;
67248;SDS011;63247;54.300;18.592;2022-10-01T15:19:17;23.05;;;11.00;;
67248;SDS011;63247;54.300;18.592;2022-10-01T15:21:54;24.27;;;10.85;;
67248;SDS011;63247;54.300;18.592;2022-10-01T15:27:03;20.40;;;9.97;;
67248;SDS011;63247;54.300;18.592;2022-10-01T15:29:30;21.20;;;9.85;;
67248;SDS011;63247;54.300;18.592;2022-10-01T15:31:56;31.38;;;12.27;;
67248;SDS011;63247;54.300;18.592;2022-10-01T15:34:24;21.50;;;9.93;;
67248;SDS011;63247;54.300;18.592;2022-10-01T15:36:50;25.83;;;9.63;;
67248;SDS011;63247;54.300;18.592;2022-10-01T15:42:06;25.73;;;10.02;;
67248;SDS011;63247;54.300;18.592;2022-10-01T15:47:39;33.33;;;16.00;;
67248;SDS011;63247;54.300;18.592;2022-10-01T15:52:49;23.90;;;11.77;;
67248;SDS011;63247;54.300;18.592;2022-10-01T15:55:49;24.90;;;13.95;;
67248;SDS011;63247;54.300;18.592;2022-10-01T15:58:23;20.13;;;10.40;;
67248;SDS011;63247;54.300;18.592;2022-10-01T16:03:34;25.58;;;10.95;;
67248;SDS011;63247;54.300;18.592;2022-10-01T16:06:05;25.02;;;11.45;;
67248;SDS011;63247;54.300;18.592;2022-10-01T16:11:52;25.65;;;13.30;;
67248;SDS011;63247;54.300;18.592;2022-10-01T16:14:39;31.47;;;13.53;;
67248;SDS011;63247;54.300;18.592;2022-10-01T16:17:27;26.85;;;13.15;;
67248;SDS011;63247;54.300;18.592;2022-10-01T16:22:39;25.45;;;14.00;;
67248;SDS011;63247;54.300;18.592;2022-10-01T16:25:50;29.73;;;13.82;;
67248;SDS011;63247;54.300;18.592;2022-10-01T16:27:57;29.03;;;14.60;;
67248;SDS011;63247;54.300;18.592;2022-10-01T16:30:28;36.10;;;18.05;;
67248;SDS011;63247;54.300;18.592;2022-10-01T16:33:01;28.60;;;15.90;;
67248;SDS011;63247;54.300;18.592;2022-10-01T16:35:32;30.08;;;15.52;;
67248;SDS011;63247;54.300;18.592;2022-10-01T16:38:03;29.48;;;14.13;;
67248;SDS011;63247;54.300;18.592;2022-10-01T16:40:32;32.40;;;16.07;;
67248;SDS011;63247;54.300;18.592;2022-10-01T16:43:03;30.15;;;15.10;;
67248;SDS011;63247;54.300;18.592;2022-10-01T16:45:35;33.15;;;15.93;;
67248;SDS011;63247;54.300;18.592;2022-10-01T16:48:07;35.47;;;17.83;;
67248;SDS011;63247;54.300;18.592;2022-10-01T16:50:37;26.20;;;12.75;;
67248;SDS011;63247;54.300;18.592;2022-10-01T16:53:03;30.73;;;13.87;;
67248;SDS011;63247;54.300;18.592;2022-10-01T16:55:31;29.83;;;13.53;;
67248;SDS011;63247;54.300;18.592;2022-10-01T16:58:00;33.58;;;15.45;;
67248;SDS011;63247;54.300;18.592;2022-10-01T17:00:27;31.88;;;15.65;;
67248;SDS011;63247;54.300;18.592;2022-10-01T17:02:53;34.97;;;18.20;;
67248;SDS011;63247;54.300;18.592;2022-10-01T17:07:47;33.60;;;16.10;;
67248;SDS011;63247;54.300;18.592;2022-10-01T17:10:13;38.33;;;18.45;;
67248;SDS011;63247;54.300;18.592;2022-10-01T17:12:40;38.83;;;18.87;;